sensor_id;sensor_type;location;lat;lon;timestamp;P1;durP1;ratioP1;P2;durP2;ratioP2
7573;SDS011;3828;48.922;9.116;2022-08-05T00:01:29;4.80;;;3.03;;
7573;SDS011;3828;48.922;9.116;2022-08-05T00:03:55;4.07;;;3.23;;
7573;SDS011;3828;48.922;9.116;2022-08-05T00:06:22;4.13;;;3.63;;
7573;SDS011;3828;48.922;9.116;2022-08-05T00:08:50;3.90;;;3.47;;
7573;SDS011;3828;48.922;9.116;2022-08-05T00:11:17;3.97;;;3.40;;
7573;SDS011;3828;48.922;9.116;2022-08-05T00:13:45;4.40;;;4.00;;
7573;SDS011;3828;48.922;9.116;2022-08-05T00:16:13;5.97;;;4.20;;
7573;SDS011;3828;48.922;9.116;2022-08-05T00:18:41;4.20;;;3.90;;
7573;SDS011;3828;48.922;9.116;2022-08-05T00:21:09;3.60;;;3.30;;
7573;SDS011;3828;48.922;9.116;2022-08-05T00:23:37;4.43;;;3.73;;
7573;SDS011;3828;48.922;9.116;2022-08-05T00:26:06;3.83;;;3.37;;
7573;SDS011;3828;48.922;9.116;2022-08-05T00:28:33;7.00;;;3.50;;
7573;SDS011;3828;48.922;9.116;2022-08-05T00:31:02;3.60;;;3.00;;
7573;SDS011;3828;48.922;9.116;2022-08-05T00:33:29;4.00;;;3.33;;
7573;SDS011;3828;48.922;9.116;2022-08-05T00:35:56;3.93;;;3.43;;
7573;SDS011;3828;48.922;9.116;2022-08-05T00:38:23;3.50;;;3.20;;
7573;SDS011;3828;48.922;9.116;2022-08-05T00:40:51;3.70;;;3.40;;
7573;SDS011;3828;48.922;9.116;2022-08-05T00:43:21;3.90;;;3.60;;
7573;SDS011;3828;48.922;9.116;2022-08-05T00:45:48;3.90;;;3.43;;
7573;SDS011;3828;48.922;9.116;2022-08-05T00:48:16;3.90;;;2.80;;
7573;SDS011;3828;48.922;9.116;2022-08-05T00:50:44;3.27;;;2.60;;
7573;SDS011;3828;48.922;9.116;2022-08-05T00:53:12;6.20;;;2.10;;
7573;SDS011;3828;48.922;9.116;2022-08-05T00:55:40;3.77;;;2.43;;
7573;SDS011;3828;48.922;9.116;2022-08-05T00:58:07;3.27;;;2.70;;
7573;SDS011;3828;48.922;9.116;2022-08-05T01:00:35;4.67;;;2.23;;
7573;SDS011;3828;48.922;9.116;2022-08-05T01:03:02;2.80;;;2.60;;
7573;SDS011;3828;48.922;9.116;2022-08-05T01:05:28;3.80;;;2.10;;
7573;SDS011;3828;48.922;9.116;2022-08-05T01:07:55;4.00;;;2.30;;
7573;SDS011;3828;48.922;9.116;2022-08-05T01:10:23;3.37;;;2.50;;
7573;SDS011;3828;48.922;9.116;2022-08-05T01:12:56;2.50;;;2.30;;
7573;SDS011;3828;48.922;9.116;2022-08-05T01:15:31;3.87;;;2.40;;
7573;SDS011;3828;48.922;9.116;2022-08-05T01:18:05;3.20;;;2.17;;
7573;SDS011;3828;48.922;9.116;2022-08-05T01:20:39;3.57;;;2.27;;
7573;SDS011;3828;48.922;9.116;2022-08-05T01:23:17;6.50;;;3.07;;
7573;SDS011;3828;48.922;9.116;2022-08-05T01:26:01;4.87;;;2.13;;
7573;SDS011;3828;48.922;9.116;2022-08-05T01:28:41;3.60;;;2.70;;
7573;SDS011;3828;48.922;9.116;2022-08-05T01:31:11;4.37;;;2.50;;
7573;SDS011;3828;48.922;9.116;2022-08-05T01:33:47;3.30;;;2.20;;
7573;SDS011;3828;48.922;9.116;2022-08-05T01:36:19;5.67;;;2.40;;
7573;SDS011;3828;48.922;9.116;2022-08-05T01:38:50;3.03;;;2.43;;
7573;SDS011;3828;48.922;9.116;2022-08-05T01:41:18;3.93;;;2.57;;
7573;SDS011;3828;48.922;9.116;2022-08-05T01:43:49;6.47;;;2.63;;
7573;SDS011;3828;48.922;9.116;2022-08-05T01:46:17;3.67;;;2.33;;
7573;SDS011;3828;48.922;9.116;2022-08-05T01:48:45;7.23;;;2.77;;
7573;SDS011;3828;48.922;9.116;2022-08-05T01:51:13;2.43;;;2.20;;
7573;SDS011;3828;48.922;9.116;2022-08-05T01:53:41;6.40;;;2.13;;
7573;SDS011;3828;48.922;9.116;2022-08-05T01:56:11;6.00;;;2.83;;
7573;SDS011;3828;48.922;9.116;2022-08-05T01:58:43;5.83;;;2.57;;
7573;SDS011;3828;48.922;9.116;2022-08-05T02:01:12;5.30;;;2.63;;
7573;SDS011;3828;48.922;9.116;2022-08-05T02:03:42;4.90;;;2.80;;
7573;SDS011;3828;48.922;9.116;2022-08-05T02:06:12;7.60;;;2.90;;
7573;SDS011;3828;48.922;9.116;2022-08-05T02:08:39;2.67;;;2.47;;
7573;SDS011;3828;48.922;9.116;2022-08-05T02:11:10;3.77;;;2.57;;
7573;SDS011;3828;48.922;9.116;2022-08-05T02:13:51;3.80;;;2.27;;
7573;SDS011;3828;48.922;9.116;2022-08-05T02:16:22;2.97;;;2.50;;
7573;SDS011;3828;48.922;9.116;2022-08-05T02:18:55;2.43;;;2.23;;
7573;SDS011;3828;48.922;9.116;2022-08-05T02:21:25;3.77;;;2.90;;
7573;SDS011;3828;48.922;9.116;2022-08-05T02:23:56;4.17;;;2.37;;
7573;SDS011;3828;48.922;9.116;2022-08-05T02:26:32;2.90;;;2.60;;
7573;SDS011;3828;48.922;9.116;2022-08-05T02:29:03;3.77;;;2.43;;
7573;SDS011;3828;48.922;9.116;2022-08-05T02:31:34;2.70;;;2.47;;
7573;SDS011;3828;48.922;9.116;2022-08-05T02:34:02;5.53;;;2.73;;
7573;SDS011;3828;48.922;9.116;2022-08-05T02:36:31;3.47;;;2.43;;
7573;SDS011;3828;48.922;9.116;2022-08-05T02:39:02;3.27;;;2.90;;
7573;SDS011;3828;48.922;9.116;2022-08-05T02:41:31;4.10;;;2.77;;
7573;SDS011;3828;48.922;9.116;2022-08-05T02:43:59;6.40;;;2.50;;
7573;SDS011;3828;48.922;9.116;2022-08-05T02:46:27;4.80;;;2.70;;
7573;SDS011;3828;48.922;9.116;2022-08-05T02:48:55;4.03;;;2.30;;
7573;SDS011;3828;48.922;9.116;2022-08-05T02:51:23;3.30;;;2.53;;
7573;SDS011;3828;48.922;9.116;2022-08-05T02:53:51;3.03;;;2.27;;
7573;SDS011;3828;48.922;9.116;2022-08-05T02:56:19;7.23;;;2.40;;
7573;SDS011;3828;48.922;9.116;2022-08-05T02:58:46;5.10;;;2.60;;
7573;SDS011;3828;48.922;9.116;2022-08-05T03:01:16;3.70;;;2.20;;
7573;SDS011;3828;48.922;9.116;2022-08-05T03:03:48;3.00;;;2.80;;
7573;SDS011;3828;48.922;9.116;2022-08-05T03:06:19;3.73;;;2.53;;
7573;SDS011;3828;48.922;9.116;2022-08-05T03:08:48;2.63;;;2.43;;
7573;SDS011;3828;48.922;9.116;2022-08-05T03:11:17;5.77;;;2.87;;
7573;SDS011;3828;48.922;9.116;2022-08-05T03:13:45;6.80;;;3.13;;
7573;SDS011;3828;48.922;9.116;2022-08-05T03:16:12;4.90;;;2.93;;
7573;SDS011;3828;48.922;9.116;2022-08-05T03:18:39;5.10;;;2.80;;
7573;SDS011;3828;48.922;9.116;2022-08-05T03:21:06;2.50;;;2.30;;
7573;SDS011;3828;48.922;9.116;2022-08-05T03:23:35;3.23;;;2.93;;
7573;SDS011;3828;48.922;9.116;2022-08-05T03:26:04;5.00;;;2.77;;
7573;SDS011;3828;48.922;9.116;2022-08-05T03:28:31;2.70;;;2.50;;
7573;SDS011;3828;48.922;9.116;2022-08-05T03:30:58;2.90;;;2.60;;
7573;SDS011;3828;48.922;9.116;2022-08-05T03:33:26;4.60;;;2.90;;
7573;SDS011;3828;48.922;9.116;2022-08-05T03:35:54;4.10;;;3.00;;
7573;SDS011;3828;48.922;9.116;2022-08-05T03:38:22;3.73;;;2.60;;
7573;SDS011;3828;48.922;9.116;2022-08-05T03:40:51;4.00;;;2.90;;
7573;SDS011;3828;48.922;9.116;2022-08-05T03:43:19;5.40;;;2.60;;
7573;SDS011;3828;48.922;9.116;2022-08-05T03:45:48;7.23;;;3.40;;
7573;SDS011;3828;48.922;9.116;2022-08-05T03:48:16;3.80;;;2.70;;
7573;SDS011;3828;48.922;9.116;2022-08-05T03:50:44;5.07;;;3.00;;
7573;SDS011;3828;48.922;9.116;2022-08-05T03:53:17;5.40;;;2.40;;
7573;SDS011;3828;48.922;9.116;2022-08-05T03:55:49;4.73;;;3.30;;
7573;SDS011;3828;48.922;9.116;2022-08-05T03:58:22;4.03;;;3.00;;
7573;SDS011;3828;48.922;9.116;2022-08-05T04:00:52;5.23;;;3.03;;
7573;SDS011;3828;48.922;9.116;2022-08-05T04:03:20;5.10;;;3.17;;
7573;SDS011;3828;48.922;9.116;2022-08-05T04:05:49;6.60;;;3.10;;
7573;SDS011;3828;48.922;9.116;2022-08-05T04:08:16;5.83;;;3.40;;
7573;SDS011;3828;48.922;9.116;2022-08-05T04:10:44;8.77;;;3.77;;
7573;SDS011;3828;48.922;9.116;2022-08-05T04:13:12;4.33;;;2.97;;
7573;SDS011;3828;48.922;9.116;2022-08-05T04:15:42;5.37;;;3.70;;
7573;SDS011;3828;48.922;9.116;2022-08-05T04:18:11;8.10;;;3.20;;
7573;SDS011;3828;48.922;9.116;2022-08-05T04:20:38;4.00;;;2.90;;
7573;SDS011;3828;48.922;9.116;2022-08-05T04:23:05;5.90;;;2.97;;
7573;SDS011;3828;48.922;9.116;2022-08-05T04:25:33;3.13;;;2.90;;
7573;SDS011;3828;48.922;9.116;2022-08-05T04:27:59;3.93;;;3.00;;
7573;SDS011;3828;48.922;9.116;2022-08-05T04:30:28;5.40;;;3.33;;
7573;SDS011;3828;48.922;9.116;2022-08-05T04:32:55;4.47;;;3.60;;
7573;SDS011;3828;48.922;9.116;2022-08-05T04:35:22;4.70;;;3.10;;
7573;SDS011;3828;48.922;9.116;2022-08-05T04:37:49;3.07;;;2.77;;
7573;SDS011;3828;48.922;9.116;2022-08-05T04:40:15;3.43;;;3.00;;
7573;SDS011;3828;48.922;9.116;2022-08-05T04:42:42;4.53;;;2.97;;
7573;SDS011;3828;48.922;9.116;2022-08-05T04:45:09;5.33;;;3.03;;
7573;SDS011;3828;48.922;9.116;2022-08-05T04:47:37;4.53;;;3.00;;
7573;SDS011;3828;48.922;9.116;2022-08-05T04:50:04;5.20;;;2.80;;
7573;SDS011;3828;48.922;9.116;2022-08-05T04:52:32;4.47;;;3.70;;
7573;SDS011;3828;48.922;9.116;2022-08-05T04:54:59;6.80;;;3.53;;
7573;SDS011;3828;48.922;9.116;2022-08-05T04:57:26;4.77;;;3.20;;
7573;SDS011;3828;48.922;9.116;2022-08-05T04:59:53;4.87;;;3.10;;
7573;SDS011;3828;48.922;9.116;2022-08-05T05:02:19;6.33;;;3.70;;
7573;SDS011;3828;48.922;9.116;2022-08-05T05:04:47;4.30;;;2.93;;
7573;SDS011;3828;48.922;9.116;2022-08-05T05:07:14;6.07;;;3.80;;
7573;SDS011;3828;48.922;9.116;2022-08-05T05:09:42;4.97;;;3.80;;
7573;SDS011;3828;48.922;9.116;2022-08-05T05:12:09;6.13;;;3.97;;
7573;SDS011;3828;48.922;9.116;2022-08-05T05:14:35;4.30;;;3.93;;
7573;SDS011;3828;48.922;9.116;2022-08-05T05:17:02;4.77;;;3.60;;
7573;SDS011;3828;48.922;9.116;2022-08-05T05:19:29;7.07;;;3.40;;
7573;SDS011;3828;48.922;9.116;2022-08-05T05:21:57;9.40;;;4.37;;
7573;SDS011;3828;48.922;9.116;2022-08-05T05:24:24;6.53;;;4.33;;
7573;SDS011;3828;48.922;9.116;2022-08-05T05:26:51;7.97;;;4.33;;
7573;SDS011;3828;48.922;9.116;2022-08-05T05:29:17;5.63;;;3.47;;
7573;SDS011;3828;48.922;9.116;2022-08-05T05:31:44;6.43;;;3.63;;
7573;SDS011;3828;48.922;9.116;2022-08-05T05:34:11;6.90;;;4.03;;
7573;SDS011;3828;48.922;9.116;2022-08-05T05:36:38;5.43;;;3.90;;
7573;SDS011;3828;48.922;9.116;2022-08-05T05:39:06;8.47;;;4.43;;
7573;SDS011;3828;48.922;9.116;2022-08-05T05:41:33;4.60;;;3.53;;
7573;SDS011;3828;48.922;9.116;2022-08-05T05:43:59;5.03;;;3.67;;
7573;SDS011;3828;48.922;9.116;2022-08-05T05:46:26;4.73;;;3.30;;
7573;SDS011;3828;48.922;9.116;2022-08-05T05:48:53;5.33;;;3.63;;
7573;SDS011;3828;48.922;9.116;2022-08-05T05:51:20;4.47;;;3.20;;
7573;SDS011;3828;48.922;9.116;2022-08-05T05:53:48;3.57;;;2.67;;
7573;SDS011;3828;48.922;9.116;2022-08-05T05:56:17;3.80;;;3.10;;
7573;SDS011;3828;48.922;9.116;2022-08-05T05:58:45;4.47;;;3.10;;
7573;SDS011;3828;48.922;9.116;2022-08-05T06:01:12;2.93;;;2.73;;
7573;SDS011;3828;48.922;9.116;2022-08-05T06:03:39;5.30;;;3.03;;
7573;SDS011;3828;48.922;9.116;2022-08-05T06:06:06;4.07;;;3.40;;
7573;SDS011;3828;48.922;9.116;2022-08-05T06:08:33;6.70;;;3.30;;
7573;SDS011;3828;48.922;9.116;2022-08-05T06:11:01;4.80;;;3.00;;
7573;SDS011;3828;48.922;9.116;2022-08-05T06:13:29;4.33;;;3.00;;
7573;SDS011;3828;48.922;9.116;2022-08-05T06:15:56;3.97;;;3.30;;
7573;SDS011;3828;48.922;9.116;2022-08-05T06:18:23;3.33;;;3.00;;
7573;SDS011;3828;48.922;9.116;2022-08-05T06:20:49;9.87;;;4.37;;
7573;SDS011;3828;48.922;9.116;2022-08-05T06:23:16;7.40;;;3.23;;
7573;SDS011;3828;48.922;9.116;2022-08-05T06:25:43;4.53;;;3.57;;
7573;SDS011;3828;48.922;9.116;2022-08-05T06:28:10;5.03;;;3.37;;
7573;SDS011;3828;48.922;9.116;2022-08-05T06:30:38;4.53;;;3.80;;
7573;SDS011;3828;48.922;9.116;2022-08-05T06:33:05;3.10;;;2.80;;
7573;SDS011;3828;48.922;9.116;2022-08-05T06:35:32;3.27;;;3.07;;
7573;SDS011;3828;48.922;9.116;2022-08-05T06:37:58;4.87;;;2.87;;
7573;SDS011;3828;48.922;9.116;2022-08-05T06:40:25;3.10;;;2.80;;
7573;SDS011;3828;48.922;9.116;2022-08-05T06:42:52;2.83;;;2.47;;
7573;SDS011;3828;48.922;9.116;2022-08-05T06:45:19;3.40;;;3.10;;
7573;SDS011;3828;48.922;9.116;2022-08-05T06:47:48;2.60;;;2.40;;
7573;SDS011;3828;48.922;9.116;2022-08-05T06:50:15;4.57;;;3.57;;
7573;SDS011;3828;48.922;9.116;2022-08-05T06:52:41;3.50;;;2.63;;
7573;SDS011;3828;48.922;9.116;2022-08-05T06:55:08;3.97;;;2.80;;
7573;SDS011;3828;48.922;9.116;2022-08-05T06:57:35;4.20;;;3.10;;
7573;SDS011;3828;48.922;9.116;2022-08-05T07:00:02;3.27;;;2.30;;
7573;SDS011;3828;48.922;9.116;2022-08-05T07:02:29;4.07;;;2.77;;
7573;SDS011;3828;48.922;9.116;2022-08-05T07:04:57;2.67;;;2.47;;
7573;SDS011;3828;48.922;9.116;2022-08-05T07:07:25;3.10;;;2.80;;
7573;SDS011;3828;48.922;9.116;2022-08-05T07:09:51;3.07;;;2.87;;
7573;SDS011;3828;48.922;9.116;2022-08-05T07:12:18;3.30;;;2.63;;
7573;SDS011;3828;48.922;9.116;2022-08-05T07:15:02;3.07;;;2.60;;
7573;SDS011;3828;48.922;9.116;2022-08-05T07:17:47;4.33;;;2.50;;
7573;SDS011;3828;48.922;9.116;2022-08-05T07:20:16;4.93;;;3.03;;
7573;SDS011;3828;48.922;9.116;2022-08-05T07:22:43;3.33;;;2.37;;
7573;SDS011;3828;48.922;9.116;2022-08-05T07:25:09;3.00;;;2.70;;
7573;SDS011;3828;48.922;9.116;2022-08-05T07:27:36;2.73;;;2.53;;
7573;SDS011;3828;48.922;9.116;2022-08-05T07:30:03;3.83;;;2.70;;
7573;SDS011;3828;48.922;9.116;2022-08-05T07:32:33;3.30;;;2.30;;
7573;SDS011;3828;48.922;9.116;2022-08-05T07:35:00;2.30;;;2.10;;
7573;SDS011;3828;48.922;9.116;2022-08-05T07:37:28;2.00;;;1.80;;
7573;SDS011;3828;48.922;9.116;2022-08-05T07:39:55;2.00;;;1.90;;
7573;SDS011;3828;48.922;9.116;2022-08-05T07:42:22;1.90;;;1.80;;
7573;SDS011;3828;48.922;9.116;2022-08-05T07:44:48;3.97;;;2.03;;
7573;SDS011;3828;48.922;9.116;2022-08-05T07:47:15;3.63;;;2.40;;
7573;SDS011;3828;48.922;9.116;2022-08-05T07:49:42;2.30;;;1.97;;
7573;SDS011;3828;48.922;9.116;2022-08-05T07:52:09;2.07;;;1.90;;
7573;SDS011;3828;48.922;9.116;2022-08-05T07:54:37;3.37;;;1.93;;
7573;SDS011;3828;48.922;9.116;2022-08-05T07:57:04;2.13;;;1.90;;
7573;SDS011;3828;48.922;9.116;2022-08-05T07:59:31;2.10;;;1.87;;
7573;SDS011;3828;48.922;9.116;2022-08-05T08:01:57;2.43;;;2.10;;
7573;SDS011;3828;48.922;9.116;2022-08-05T08:04:25;2.47;;;2.27;;
7573;SDS011;3828;48.922;9.116;2022-08-05T08:06:52;2.47;;;1.63;;
7573;SDS011;3828;48.922;9.116;2022-08-05T08:09:19;2.67;;;2.23;;
7573;SDS011;3828;48.922;9.116;2022-08-05T08:11:49;2.10;;;1.90;;
7573;SDS011;3828;48.922;9.116;2022-08-05T08:14:16;2.33;;;2.00;;
7573;SDS011;3828;48.922;9.116;2022-08-05T08:16:43;3.97;;;2.17;;
7573;SDS011;3828;48.922;9.116;2022-08-05T08:19:10;2.23;;;2.13;;
7573;SDS011;3828;48.922;9.116;2022-08-05T08:21:36;2.10;;;1.90;;
7573;SDS011;3828;48.922;9.116;2022-08-05T08:24:03;2.83;;;2.10;;
7573;SDS011;3828;48.922;9.116;2022-08-05T08:26:32;6.80;;;2.33;;
7573;SDS011;3828;48.922;9.116;2022-08-05T08:29:00;2.00;;;1.80;;
7573;SDS011;3828;48.922;9.116;2022-08-05T08:31:29;2.50;;;2.17;;
7573;SDS011;3828;48.922;9.116;2022-08-05T08:33:55;3.90;;;2.20;;
7573;SDS011;3828;48.922;9.116;2022-08-05T08:36:24;2.40;;;2.20;;
7573;SDS011;3828;48.922;9.116;2022-08-05T08:38:51;2.73;;;1.97;;
7573;SDS011;3828;48.922;9.116;2022-08-05T08:41:19;1.90;;;1.60;;
7573;SDS011;3828;48.922;9.116;2022-08-05T08:43:48;1.90;;;1.47;;
7573;SDS011;3828;48.922;9.116;2022-08-05T08:46:18;2.13;;;1.87;;
7573;SDS011;3828;48.922;9.116;2022-08-05T08:48:46;4.60;;;2.00;;
7573;SDS011;3828;48.922;9.116;2022-08-05T08:51:15;2.30;;;1.70;;
7573;SDS011;3828;48.922;9.116;2022-08-05T08:53:44;2.03;;;1.80;;
7573;SDS011;3828;48.922;9.116;2022-08-05T08:56:12;2.50;;;2.23;;
7573;SDS011;3828;48.922;9.116;2022-08-05T08:58:39;3.20;;;1.80;;
7573;SDS011;3828;48.922;9.116;2022-08-05T09:01:06;2.93;;;2.37;;
7573;SDS011;3828;48.922;9.116;2022-08-05T09:03:35;2.70;;;2.03;;
7573;SDS011;3828;48.922;9.116;2022-08-05T09:06:03;3.33;;;2.20;;
7573;SDS011;3828;48.922;9.116;2022-08-05T09:08:30;3.03;;;2.13;;
7573;SDS011;3828;48.922;9.116;2022-08-05T09:10:57;2.47;;;1.87;;
7573;SDS011;3828;48.922;9.116;2022-08-05T09:13:24;1.90;;;1.80;;
7573;SDS011;3828;48.922;9.116;2022-08-05T09:15:51;1.87;;;1.70;;
7573;SDS011;3828;48.922;9.116;2022-08-05T09:18:18;3.63;;;2.03;;
7573;SDS011;3828;48.922;9.116;2022-08-05T09:20:47;2.70;;;1.93;;
7573;SDS011;3828;48.922;9.116;2022-08-05T09:23:15;2.40;;;2.20;;
7573;SDS011;3828;48.922;9.116;2022-08-05T09:25:45;1.70;;;1.60;;
7573;SDS011;3828;48.922;9.116;2022-08-05T09:28:14;2.27;;;2.07;;
7573;SDS011;3828;48.922;9.116;2022-08-05T09:30:43;2.37;;;1.80;;
7573;SDS011;3828;48.922;9.116;2022-08-05T09:33:17;3.73;;;2.00;;
7573;SDS011;3828;48.922;9.116;2022-08-05T09:35:52;2.13;;;1.97;;
7573;SDS011;3828;48.922;9.116;2022-08-05T09:38:23;3.33;;;1.90;;
7573;SDS011;3828;48.922;9.116;2022-08-05T09:40:50;2.23;;;2.03;;
7573;SDS011;3828;48.922;9.116;2022-08-05T09:43:25;2.50;;;1.97;;
7573;SDS011;3828;48.922;9.116;2022-08-05T09:45:53;2.00;;;1.80;;
7573;SDS011;3828;48.922;9.116;2022-08-05T09:48:21;2.40;;;2.17;;
7573;SDS011;3828;48.922;9.116;2022-08-05T09:50:51;1.87;;;1.77;;
7573;SDS011;3828;48.922;9.116;2022-08-05T09:53:20;2.77;;;2.13;;
7573;SDS011;3828;48.922;9.116;2022-08-05T09:55:51;2.37;;;1.60;;
7573;SDS011;3828;48.922;9.116;2022-08-05T09:58:19;1.60;;;1.50;;
7573;SDS011;3828;48.922;9.116;2022-08-05T10:00:57;1.83;;;1.63;;
7573;SDS011;3828;48.922;9.116;2022-08-05T10:03:26;2.37;;;1.57;;
7573;SDS011;3828;48.922;9.116;2022-08-05T10:06:02;1.70;;;1.60;;
7573;SDS011;3828;48.922;9.116;2022-08-05T10:08:30;2.03;;;1.70;;
7573;SDS011;3828;48.922;9.116;2022-08-05T10:10:57;1.80;;;1.70;;
7573;SDS011;3828;48.922;9.116;2022-08-05T10:13:28;3.50;;;1.50;;
7573;SDS011;3828;48.922;9.116;2022-08-05T10:15:56;2.27;;;2.00;;
7573;SDS011;3828;48.922;9.116;2022-08-05T10:18:24;1.70;;;1.60;;
7573;SDS011;3828;48.922;9.116;2022-08-05T10:20:52;1.77;;;1.67;;
7573;SDS011;3828;48.922;9.116;2022-08-05T10:23:22;1.60;;;1.50;;
7573;SDS011;3828;48.922;9.116;2022-08-05T10:25:50;3.20;;;1.93;;
7573;SDS011;3828;48.922;9.116;2022-08-05T10:28:17;1.73;;;1.63;;
7573;SDS011;3828;48.922;9.116;2022-08-05T10:30:45;2.50;;;1.43;;
7573;SDS011;3828;48.922;9.116;2022-08-05T10:33:12;2.00;;;1.80;;
7573;SDS011;3828;48.922;9.116;2022-08-05T10:35:39;4.43;;;1.60;;
7573;SDS011;3828;48.922;9.116;2022-08-05T10:38:06;1.83;;;1.53;;
7573;SDS011;3828;48.922;9.116;2022-08-05T10:40:40;1.70;;;1.60;;
7573;SDS011;3828;48.922;9.116;2022-08-05T10:43:16;1.60;;;1.50;;
7573;SDS011;3828;48.922;9.116;2022-08-05T10:45:55;1.60;;;1.50;;
7573;SDS011;3828;48.922;9.116;2022-08-05T10:48:30;1.80;;;1.70;;
7573;SDS011;3828;48.922;9.116;2022-08-05T10:50:59;2.20;;;1.70;;
7573;SDS011;3828;48.922;9.116;2022-08-05T10:53:37;1.70;;;1.60;;
7573;SDS011;3828;48.922;9.116;2022-08-05T10:56:08;3.20;;;1.87;;
7573;SDS011;3828;48.922;9.116;2022-08-05T10:58:46;1.97;;;1.60;;
7573;SDS011;3828;48.922;9.116;2022-08-05T11:01:14;1.83;;;1.73;;
7573;SDS011;3828;48.922;9.116;2022-08-05T11:06:27;2.20;;;1.97;;
7573;SDS011;3828;48.922;9.116;2022-08-05T11:09:16;1.73;;;1.63;;
7573;SDS011;3828;48.922;9.116;2022-08-05T11:11:46;1.75;;;1.65;;
7573;SDS011;3828;48.922;9.116;2022-08-05T11:14:21;2.53;;;1.95;;
7573;SDS011;3828;48.922;9.116;2022-08-05T11:19:54;2.00;;;1.60;;
7573;SDS011;3828;48.922;9.116;2022-08-05T11:22:41;1.67;;;1.58;;
7573;SDS011;3828;48.922;9.116;2022-08-05T11:25:30;3.72;;;2.00;;
7573;SDS011;3828;48.922;9.116;2022-08-05T11:31:23;2.13;;;1.70;;
7573;SDS011;3828;48.922;9.116;2022-08-05T11:33:57;2.55;;;1.40;;
7573;SDS011;3828;48.922;9.116;2022-08-05T11:36:38;2.17;;;1.85;;
7573;SDS011;3828;48.922;9.116;2022-08-05T11:39:08;2.05;;;1.30;;
7573;SDS011;3828;48.922;9.116;2022-08-05T11:41:37;2.05;;;1.60;;
7573;SDS011;3828;48.922;9.116;2022-08-05T11:44:05;2.80;;;1.60;;
7573;SDS011;3828;48.922;9.116;2022-08-05T11:46:36;2.15;;;1.40;;
7573;SDS011;3828;48.922;9.116;2022-08-05T11:49:06;1.35;;;1.25;;
7573;SDS011;3828;48.922;9.116;2022-08-05T11:51:34;1.92;;;1.73;;
7573;SDS011;3828;48.922;9.116;2022-08-05T11:54:00;3.05;;;1.95;;
7573;SDS011;3828;48.922;9.116;2022-08-05T11:56:41;1.45;;;1.38;;
7573;SDS011;3828;48.922;9.116;2022-08-05T11:59:11;3.47;;;1.70;;
7573;SDS011;3828;48.922;9.116;2022-08-05T12:01:51;1.48;;;1.38;;
7573;SDS011;3828;48.922;9.116;2022-08-05T12:04:20;1.90;;;1.60;;
7573;SDS011;3828;48.922;9.116;2022-08-05T12:06:47;2.70;;;1.30;;
7573;SDS011;3828;48.922;9.116;2022-08-05T12:09:16;3.03;;;1.92;;
7573;SDS011;3828;48.922;9.116;2022-08-05T12:11:45;2.20;;;2.00;;
7573;SDS011;3828;48.922;9.116;2022-08-05T12:14:12;1.58;;;1.48;;
7573;SDS011;3828;48.922;9.116;2022-08-05T12:16:40;2.90;;;2.22;;
7573;SDS011;3828;48.922;9.116;2022-08-05T12:19:10;1.80;;;1.52;;
7573;SDS011;3828;48.922;9.116;2022-08-05T12:21:41;3.92;;;1.88;;
7573;SDS011;3828;48.922;9.116;2022-08-05T12:24:11;3.10;;;1.83;;
7573;SDS011;3828;48.922;9.116;2022-08-05T12:26:40;2.10;;;1.90;;
7573;SDS011;3828;48.922;9.116;2022-08-05T12:29:10;2.30;;;1.35;;
7573;SDS011;3828;48.922;9.116;2022-08-05T12:31:38;2.10;;;1.90;;
7573;SDS011;3828;48.922;9.116;2022-08-05T12:34:06;2.05;;;1.65;;
7573;SDS011;3828;48.922;9.116;2022-08-05T12:36:35;3.47;;;1.90;;
7573;SDS011;3828;48.922;9.116;2022-08-05T12:39:03;2.28;;;1.52;;
7573;SDS011;3828;48.922;9.116;2022-08-05T12:41:31;4.00;;;1.50;;
7573;SDS011;3828;48.922;9.116;2022-08-05T12:43:59;3.35;;;1.63;;
7573;SDS011;3828;48.922;9.116;2022-08-05T12:46:28;1.15;;;1.15;;
7573;SDS011;3828;48.922;9.116;2022-08-05T12:48:57;1.70;;;1.50;;
7573;SDS011;3828;48.922;9.116;2022-08-05T12:51:26;3.25;;;1.40;;
7573;SDS011;3828;48.922;9.116;2022-08-05T12:53:59;2.17;;;1.55;;
7573;SDS011;3828;48.922;9.116;2022-08-05T12:56:27;2.33;;;1.80;;
7573;SDS011;3828;48.922;9.116;2022-08-05T12:59:09;3.28;;;1.70;;
7573;SDS011;3828;48.922;9.116;2022-08-05T13:01:37;2.70;;;1.60;;
7573;SDS011;3828;48.922;9.116;2022-08-05T13:04:04;1.60;;;1.50;;
7573;SDS011;3828;48.922;9.116;2022-08-05T13:06:33;3.28;;;1.80;;
7573;SDS011;3828;48.922;9.116;2022-08-05T13:09:06;2.38;;;1.75;;
7573;SDS011;3828;48.922;9.116;2022-08-05T13:11:36;2.20;;;1.50;;
7573;SDS011;3828;48.922;9.116;2022-08-05T13:14:09;5.15;;;1.48;;
7573;SDS011;3828;48.922;9.116;2022-08-05T13:16:50;1.63;;;1.40;;
7573;SDS011;3828;48.922;9.116;2022-08-05T13:19:19;1.80;;;1.30;;
7573;SDS011;3828;48.922;9.116;2022-08-05T13:21:48;1.80;;;1.70;;
7573;SDS011;3828;48.922;9.116;2022-08-05T13:24:16;2.45;;;1.55;;
7573;SDS011;3828;48.922;9.116;2022-08-05T13:26:44;1.63;;;1.40;;
7573;SDS011;3828;48.922;9.116;2022-08-05T13:29:12;1.52;;;1.30;;
7573;SDS011;3828;48.922;9.116;2022-08-05T13:31:39;1.70;;;1.60;;
7573;SDS011;3828;48.922;9.116;2022-08-05T13:34:06;2.95;;;1.67;;
7573;SDS011;3828;48.922;9.116;2022-08-05T13:36:33;1.63;;;1.40;;
7573;SDS011;3828;48.922;9.116;2022-08-05T13:39:02;1.70;;;1.60;;
7573;SDS011;3828;48.922;9.116;2022-08-05T13:41:30;1.50;;;1.40;;
7573;SDS011;3828;48.922;9.116;2022-08-05T13:43:57;2.25;;;1.90;;
7573;SDS011;3828;48.922;9.116;2022-08-05T13:46:24;2.05;;;1.48;;
7573;SDS011;3828;48.922;9.116;2022-08-05T13:48:51;1.98;;;1.60;;
7573;SDS011;3828;48.922;9.116;2022-08-05T13:51:24;2.13;;;1.92;;
7573;SDS011;3828;48.922;9.116;2022-08-05T13:53:53;1.92;;;1.55;;
7573;SDS011;3828;48.922;9.116;2022-08-05T13:56:22;3.63;;;1.60;;
7573;SDS011;3828;48.922;9.116;2022-08-05T13:58:49;4.05;;;1.70;;
7573;SDS011;3828;48.922;9.116;2022-08-05T14:01:16;1.65;;;1.55;;
7573;SDS011;3828;48.922;9.116;2022-08-05T14:03:43;2.65;;;1.63;;
7573;SDS011;3828;48.922;9.116;2022-08-05T14:06:30;2.17;;;1.87;;
7573;SDS011;3828;48.922;9.116;2022-08-05T14:08:58;1.67;;;1.57;;
7573;SDS011;3828;48.922;9.116;2022-08-05T14:11:26;1.90;;;1.80;;
7573;SDS011;3828;48.922;9.116;2022-08-05T14:13:58;2.17;;;1.95;;
7573;SDS011;3828;48.922;9.116;2022-08-05T14:16:25;1.50;;;1.30;;
7573;SDS011;3828;48.922;9.116;2022-08-05T14:18:52;3.63;;;1.77;;
7573;SDS011;3828;48.922;9.116;2022-08-05T14:21:19;2.20;;;2.00;;
7573;SDS011;3828;48.922;9.116;2022-08-05T14:23:46;3.53;;;2.10;;
7573;SDS011;3828;48.922;9.116;2022-08-05T14:26:13;3.03;;;1.90;;
7573;SDS011;3828;48.922;9.116;2022-08-05T14:28:41;3.00;;;2.00;;
7573;SDS011;3828;48.922;9.116;2022-08-05T14:31:07;2.10;;;1.83;;
7573;SDS011;3828;48.922;9.116;2022-08-05T14:33:34;4.13;;;2.10;;
7573;SDS011;3828;48.922;9.116;2022-08-05T14:36:02;2.73;;;2.03;;
7573;SDS011;3828;48.922;9.116;2022-08-05T14:38:29;2.87;;;2.20;;
7573;SDS011;3828;48.922;9.116;2022-08-05T14:40:56;2.23;;;2.10;;
7573;SDS011;3828;48.922;9.116;2022-08-05T14:43:23;2.40;;;2.20;;
7573;SDS011;3828;48.922;9.116;2022-08-05T14:45:51;2.40;;;2.20;;
7573;SDS011;3828;48.922;9.116;2022-08-05T14:48:18;3.17;;;2.40;;
7573;SDS011;3828;48.922;9.116;2022-08-05T14:50:45;2.90;;;2.23;;
7573;SDS011;3828;48.922;9.116;2022-08-05T14:53:12;4.27;;;2.70;;
7573;SDS011;3828;48.922;9.116;2022-08-05T14:55:39;2.07;;;1.90;;
7573;SDS011;3828;48.922;9.116;2022-08-05T14:58:06;2.43;;;2.27;;
7573;SDS011;3828;48.922;9.116;2022-08-05T15:00:34;4.20;;;2.30;;
7573;SDS011;3828;48.922;9.116;2022-08-05T15:03:02;3.40;;;2.63;;
7573;SDS011;3828;48.922;9.116;2022-08-05T15:05:29;2.17;;;1.97;;
7573;SDS011;3828;48.922;9.116;2022-08-05T15:07:56;2.83;;;2.20;;
7573;SDS011;3828;48.922;9.116;2022-08-05T15:10:23;2.73;;;2.20;;
7573;SDS011;3828;48.922;9.116;2022-08-05T15:12:50;2.90;;;2.20;;
7573;SDS011;3828;48.922;9.116;2022-08-05T15:15:17;3.83;;;2.60;;
7573;SDS011;3828;48.922;9.116;2022-08-05T15:17:43;2.40;;;2.20;;
7573;SDS011;3828;48.922;9.116;2022-08-05T15:20:12;2.63;;;2.43;;
7573;SDS011;3828;48.922;9.116;2022-08-05T15:22:40;3.47;;;2.43;;
7573;SDS011;3828;48.922;9.116;2022-08-05T15:25:07;4.53;;;2.87;;
7573;SDS011;3828;48.922;9.116;2022-08-05T15:27:34;2.73;;;2.53;;
7573;SDS011;3828;48.922;9.116;2022-08-05T15:30:01;2.53;;;2.33;;
7573;SDS011;3828;48.922;9.116;2022-08-05T15:32:29;3.20;;;2.10;;
7573;SDS011;3828;48.922;9.116;2022-08-05T15:34:56;2.40;;;2.20;;